Time;durP1;ratioP1;P1;durP2;ratioP2;P2;SDS_P1;SDS_P2;PMS_P1;PMS_P2;Temp;Humidity;BMP_temperature;BMP_pressure;BME280_temperature;BME280_humidity;BME280_pressure;Samples;Min_cycle;Max_cycle;Signal;HPM_P1;HPM_P2
2024/04/06 00:00:43;;;;;;;8.33;4.37;;;;;;;17.11;53.96;96274.16;4965559;28;20190;-68
2024/04/06 00:03:09;;;;;;;4.83;4.00;;;;;;;17.12;53.89;96275.84;4971085;28;20681;-70
2024/04/06 00:05:35;;;;;;;9.50;4.33;;;;;;;17.04;54.36;96285.31;4963734;28;20190;-70
2024/04/06 00:08:00;;;;;;;5.63;3.60;;;;;;;17.06;53.90;96275.47;4963492;28;20668;-69
2024/04/06 00:10:25;;;;;;;8.10;4.67;;;;;;;17.04;54.22;96280.88;4966692;28;20192;-68
2024/04/06 00:12:51;;;;;;;6.07;4.47;;;;;;;16.93;54.29;96278.97;4968126;28;20319;-68
2024/04/06 00:15:17;;;;;;;11.23;4.73;;;;;;;16.90;54.88;96275.69;4953808;28;20718;-70
2024/04/06 00:17:42;;;;;;;7.20;4.80;;;;;;;16.95;54.65;96286.81;4970226;28;20197;-71
2024/04/06 00:20:08;;;;;;;5.10;4.50;;;;;;;16.87;55.66;96276.78;4973984;28;20511;-67
2024/04/06 00:22:33;;;;;;;9.53;4.80;;;;;;;16.72;56.27;96275.16;4968032;28;20198;-68
2024/04/06 00:24:58;;;;;;;9.33;6.20;;;;;;;16.79;56.30;96271.16;4977261;28;20181;-68
2024/04/06 00:27:24;;;;;;;7.47;5.60;;;;;;;16.59;56.74;96275.19;4984758;28;20177;-70
2024/04/06 00:29:49;;;;;;;5.57;4.20;;;;;;;16.69;57.16;96281.53;4973744;28;20190;-69
2024/04/06 00:32:15;;;;;;;7.03;4.90;;;;;;;16.61;57.17;96270.63;4973410;28;20209;-69
2024/04/06 00:34:40;;;;;;;5.93;4.63;;;;;;;16.48;58.05;96275.91;4974817;28;20185;-69
2024/04/06 00:37:07;;;;;;;6.20;5.00;;;;;;;16.47;58.11;96274.25;4980554;28;20283;-68
2024/04/06 00:39:32;;;;;;;8.00;5.33;;;;;;;16.36;58.58;96273.28;4959678;28;20193;-68
2024/04/06 00:41:58;;;;;;;9.73;5.20;;;;;;;16.12;59.13;96271.38;4961888;28;20522;-67
2024/04/06 00:44:24;;;;;;;10.27;6.10;;;;;;;16.23;58.79;96273.28;4964018;28;20185;-68
2024/04/06 00:46:52;;;;;;;7.50;5.27;;;;;;;16.29;58.78;96278.16;4965092;28;20224;-70
2024/04/06 00:49:18;;;;;;;7.60;5.30;;;;;;;16.24;59.90;96267.03;4958270;28;20459;-70
2024/04/06 00:51:44;;;;;;;7.27;5.07;;;;;;;16.28;59.45;96271.16;4967710;28;20465;-69
2024/04/06 00:54:10;;;;;;;7.10;4.83;;;;;;;16.28;59.14;96263.22;4968770;28;20181;-69
2024/04/06 00:56:35;;;;;;;7.30;6.23;;;;;;;16.34;58.68;96264.59;4966505;28;20217;-69
2024/04/06 00:59:02;;;;;;;12.93;6.43;;;;;;;16.25;58.44;96269.59;4964270;28;20456;-69
2024/04/06 01:01:28;;;;;;;5.60;4.83;;;;;;;16.23;58.61;96270.66;4966492;28;20205;-68
2024/04/06 01:03:53;;;;;;;5.57;4.90;;;;;;;16.03;58.93;96267.53;4956171;28;20599;-68
2024/04/06 01:06:19;;;;;;;8.50;5.20;;;;;;;16.02;59.53;96276.44;4958921;28;20181;-68
2024/04/06 01:08:44;;;;;;;8.93;5.40;;;;;;;16.06;58.70;96285.00;4959930;28;20873;-68
2024/04/06 01:11:10;;;;;;;7.43;4.83;;;;;;;16.09;58.73;96274.22;4964843;28;20174;-69
2024/04/06 01:13:35;;;;;;;8.10;4.73;;;;;;;16.07;58.53;96273.47;4967107;28;20266;-69
2024/04/06 01:16:00;;;;;;;9.87;5.13;;;;;;;16.05;57.95;96291.25;4961739;28;20186;-69
2024/04/06 01:18:26;;;;;;;8.57;4.80;;;;;;;15.99;57.66;96291.66;4962154;28;20210;-70
2024/04/06 01:20:53;;;;;;;7.33;5.60;;;;;;;15.94;57.93;96288.47;4967285;28;21228;-69
2024/04/06 01:23:19;;;;;;;7.50;4.30;;;;;;;15.91;57.70;96294.84;4965511;28;20704;-69
2024/04/06 01:25:45;;;;;;;8.40;3.90;;;;;;;15.87;57.68;96286.28;4961154;28;20587;-70
2024/04/06 01:28:10;;;;;;;9.50;4.03;;;;;;;15.85;57.66;96290.81;4959045;28;20684;-69
2024/04/06 01:30:37;;;;;;;8.17;3.70;;;;;;;15.84;57.60;96294.38;4956418;28;20185;-70
2024/04/06 01:33:03;;;;;;;8.03;4.13;;;;;;;15.75;57.64;96286.22;4965458;28;20780;-69
2024/04/06 01:35:28;;;;;;;8.80;3.77;;;;;;;15.75;58.06;96283.56;4962643;28;20444;-70
2024/04/06 01:37:53;;;;;;;6.87;4.00;;;;;;;15.66;58.39;96298.22;4959166;28;20221;-69
2024/04/06 01:40:19;;;;;;;7.90;3.47;;;;;;;15.57;58.47;96291.75;4958884;28;20641;-69
2024/04/06 01:42:44;;;;;;;9.10;4.40;;;;;;;15.60;58.61;96291.53;4961243;28;20211;-68
2024/04/06 01:45:10;;;;;;;15.10;4.60;;;;;;;15.55;58.37;96292.81;4959854;28;20182;-69
2024/04/06 01:47:35;;;;;;;5.57;3.83;;;;;;;15.53;58.89;96295.53;4963082;28;20182;-71
2024/04/06 01:50:04;;;;;;;6.70;3.70;;;;;;;15.54;58.75;96286.63;4964513;28;20185;-70
2024/04/06 01:52:29;;;;;;;7.70;3.40;;;;;;;15.43;59.14;96286.53;4950457;28;20205;-69
2024/04/06 01:54:57;;;;;;;5.83;3.80;;;;;;;15.43;59.28;96290.00;4968388;28;20443;-68
2024/04/06 01:57:23;;;;;;;8.33;4.20;;;;;;;15.42;59.11;96296.22;4971747;28;20618;-70
2024/04/06 01:59:48;;;;;;;9.37;3.67;;;;;;;15.29;59.73;96292.69;4961374;28;20445;-69
2024/04/06 02:02:14;;;;;;;14.93;4.20;;;;;;;15.37;59.09;96297.47;4962469;28;20229;-68
2024/04/06 02:04:40;;;;;;;8.67;4.53;;;;;;;15.30;59.46;96297.03;4962361;28;20193;-69
2024/04/06 02:07:09;;;;;;;8.63;4.17;;;;;;;15.31;58.96;96304.03;4960932;28;20448;-68
2024/04/06 02:09:34;;;;;;;9.40;4.33;;;;;;;15.07;59.93;96310.84;4953624;28;20595;-69
2024/04/06 02:11:59;;;;;;;6.70;3.93;;;;;;;15.22;59.28;96321.31;4964092;28;20467;-69
2024/04/06 02:14:25;;;;;;;7.57;3.27;;;;;;;15.07;59.74;96311.72;4963779;28;20201;-70
2024/04/06 02:16:51;;;;;;;6.00;3.50;;;;;;;14.96;60.07;96316.84;4956910;28;20872;-70
2024/04/06 02:19:16;;;;;;;11.10;3.43;;;;;;;14.86;60.52;96313.91;4957425;28;20181;-67
2024/04/06 02:21:41;;;;;;;9.13;3.60;;;;;;;14.94;59.97;96303.72;4960374;28;20216;-69
2024/04/06 02:24:07;;;;;;;4.07;3.13;;;;;;;14.96;59.79;96304.47;4957838;28;20932;-69
2024/04/06 02:26:32;;;;;;;4.70;4.07;;;;;;;14.95;59.91;96300.13;4955010;28;20189;-69
2024/04/06 02:28:58;;;;;;;7.17;4.03;;;;;;;14.95;60.11;96304.56;4958042;28;21135;-69
2024/04/06 02:31:23;;;;;;;8.70;3.50;;;;;;;14.92;60.06;96305.59;4958481;28;20217;-70
2024/04/06 02:33:48;;;;;;;9.07;3.90;;;;;;;14.86;60.19;96306.00;4954794;28;20217;-70
2024/04/06 02:36:14;;;;;;;9.40;4.23;;;;;;;14.87;60.24;96298.91;4964520;28;20185;-70
2024/04/06 02:38:39;;;;;;;4.53;3.57;;;;;;;14.91;60.18;96303.91;4960355;28;20217;-70
2024/04/06 02:41:05;;;;;;;11.77;4.40;;;;;;;14.62;61.44;96300.41;4959483;28;20198;-70
2024/04/06 02:43:30;;;;;;;5.20;4.07;;;;;;;14.63;61.68;96285.44;4957863;28;20191;-69
2024/04/06 02:45:55;;;;;;;6.63;4.40;;;;;;;14.51;62.58;96302.84;4963215;28;20185;-69
2024/04/06 02:48:21;;;;;;;7.30;4.53;;;;;;;14.54;62.74;96300.91;4959281;28;20178;-70
2024/04/06 02:50:47;;;;;;;4.77;4.23;;;;;;;14.58;62.72;96297.13;4963209;28;20271;-70
2024/04/06 02:53:13;;;;;;;6.50;4.20;;;;;;;14.47;63.06;96310.09;4953936;28;20209;-70
2024/04/06 02:55:38;;;;;;;4.50;4.10;;;;;;;14.57;62.84;96306.00;4963941;28;20185;-70
2024/04/06 02:58:04;;;;;;;6.13;4.23;;;;;;;14.54;63.16;96308.81;4966318;28;20484;-69
2024/04/06 03:00:29;;;;;;;6.57;4.40;;;;;;;14.53;62.93;96303.63;4967165;28;20222;-68
2024/04/06 03:02:55;;;;;;;6.53;4.50;;;;;;;14.52;63.05;96307.19;4952189;28;20209;-69
2024/04/06 03:05:20;;;;;;;7.07;4.63;;;;;;;14.58;63.02;96302.41;4965818;28;20189;-69
2024/04/06 03:07:45;;;;;;;4.90;4.40;;;;;;;14.45;63.78;96305.88;4958708;28;20267;-68
2024/04/06 03:10:11;;;;;;;7.00;4.23;;;;;;;14.47;63.65;96303.97;4959108;28;20190;-69
2024/04/06 03:12:37;;;;;;;8.10;4.60;;;;;;;14.42;63.94;96311.34;4959955;28;20201;-68
2024/04/06 03:15:03;;;;;;;7.33;4.30;;;;;;;14.40;63.75;96298.22;4959604;28;20182;-70
2024/04/06 03:17:28;;;;;;;8.57;4.47;;;;;;;14.34;64.04;96304.72;4958724;28;20668;-70
2024/04/06 03:19:54;;;;;;;6.30;5.50;;;;;;;14.25;64.18;96305.28;4966079;28;20732;-70
2024/04/06 03:22:19;;;;;;;5.77;4.87;;;;;;;14.31;64.19;96298.78;4971056;28;20283;-69
2024/04/06 03:24:44;;;;;;;7.20;4.60;;;;;;;14.21;64.56;96306.41;4968807;28;20221;-69
2024/04/06 03:27:10;;;;;;;7.57;4.50;;;;;;;14.25;64.44;96304.44;4976835;28;20204;-68
2024/04/06 03:29:35;;;;;;;6.37;4.00;;;;;;;14.24;63.94;96308.00;4989159;28;20524;-71
2024/04/06 03:32:00;;;;;;;4.83;4.30;;;;;;;14.27;63.63;96299.88;4985792;28;20268;-70
2024/04/06 03:34:26;;;;;;;6.27;4.40;;;;;;;14.17;63.81;96292.56;4985825;28;20213;-69
2024/04/06 03:36:51;;;;;;;5.00;4.10;;;;;;;14.11;63.91;96292.91;4992284;28;20309;-69
2024/04/06 03:39:17;;;;;;;6.30;5.50;;;;;;;14.05;64.35;96295.91;4984346;28;20256;-70
2024/04/06 03:41:42;;;;;;;6.90;4.17;;;;;;;14.02;64.50;96295.25;4966123;28;20209;-71
2024/04/06 03:44:08;;;;;;;6.37;4.07;;;;;;;14.01;64.35;96299.69;4968026;28;20262;-68
2024/04/06 03:46:33;;;;;;;7.20;3.70;;;;;;;14.02;64.51;96298.72;4963943;28;20178;-70
2024/04/06 03:48:59;;;;;;;9.20;5.17;;;;;;;13.90;64.76;96286.28;4958607;28;20184;-67
2024/04/06 03:51:24;;;;;;;6.23;4.20;;;;;;;13.83;65.62;96292.84;4969174;28;20193;-70
2024/04/06 03:53:49;;;;;;;6.00;4.33;;;;;;;13.83;65.19;96306.88;4970240;28;20185;-70
2024/04/06 03:56:15;;;;;;;7.97;5.40;;;;;;;13.82;65.39;96297.28;4964237;28;20177;-69
2024/04/06 03:58:40;;;;;;;6.60;4.73;;;;;;;13.92;65.16;96300.22;4963473;28;20216;-68
2024/04/06 04:01:06;;;;;;;7.40;5.07;;;;;;;13.91;65.10;96302.03;4970901;28;20211;-70
2024/04/06 04:03:31;;;;;;;6.30;5.70;;;;;;;13.85;64.97;96299.72;4973281;28;20173;-69
2024/04/06 04:05:56;;;;;;;5.17;4.50;;;;;;;13.91;64.79;96306.41;4963183;28;20185;-69
2024/04/06 04:08:22;;;;;;;11.30;4.90;;;;;;;13.92;64.82;96310.78;4964654;28;20703;-68
2024/04/06 04:10:47;;;;;;;6.23;5.10;;;;;;;13.88;65.02;96317.16;4966761;28;20576;-70
2024/04/06 04:13:13;;;;;;;6.27;5.20;;;;;;;13.61;66.13;96324.91;4968191;28;20304;-69
2024/04/06 04:15:39;;;;;;;6.77;5.37;;;;;;;13.57;65.36;96315.44;4960946;28;20221;-70
2024/04/06 04:18:05;;;;;;;6.00;5.00;;;;;;;13.50;65.63;96314.94;4968643;28;20329;-68
2024/04/06 04:20:31;;;;;;;6.17;4.27;;;;;;;13.45;65.69;96317.00;4971199;28;20466;-71
2024/04/06 04:22:56;;;;;;;13.20;5.10;;;;;;;13.40;66.04;96321.69;4963533;28;20480;-70
2024/04/06 04:25:22;;;;;;;8.87;4.50;;;;;;;13.48;65.42;96309.75;4966897;28;20189;-68
2024/04/06 04:27:47;;;;;;;7.67;4.30;;;;;;;13.47;65.42;96320.41;4967181;28;20539;-69
2024/04/06 04:30:15;;;;;;;14.03;4.90;;;;;;;13.36;65.81;96320.16;4966348;28;20189;-69
2024/04/06 04:32:41;;;;;;;8.27;4.57;;;;;;;13.28;65.84;96324.06;4959880;28;20271;-69
2024/04/06 04:35:07;;;;;;;9.33;3.60;;;;;;;13.34;65.85;96322.84;4967648;28;20444;-70
2024/04/06 04:37:32;;;;;;;5.40;4.30;;;;;;;13.27;65.78;96326.75;4968458;28;20205;-69
2024/04/06 04:39:58;;;;;;;6.47;4.17;;;;;;;13.18;66.02;96336.03;4963714;28;20279;-69
2024/04/06 04:42:23;;;;;;;5.03;4.63;;;;;;;13.20;66.75;96342.03;4967021;28;20218;-69
2024/04/06 04:44:48;;;;;;;5.07;4.57;;;;;;;13.27;66.62;96347.81;4963515;28;20186;-69
2024/04/06 04:47:14;;;;;;;7.20;4.63;;;;;;;13.31;66.73;96347.59;4965592;28;20292;-69
2024/04/06 04:49:39;;;;;;;7.43;6.83;;;;;;;13.13;67.42;96352.09;4964708;28;20528;-70
2024/04/06 04:52:05;;;;;;;6.73;4.40;;;;;;;13.24;67.35;96346.22;4961374;28;20205;-70
2024/04/06 04:54:30;;;;;;;10.00;4.30;;;;;;;13.13;67.29;96353.84;4967443;28;20197;-68
2024/04/06 04:56:55;;;;;;;5.00;4.50;;;;;;;13.13;67.92;96353.84;4963466;28;20209;-69
2024/04/06 04:59:21;;;;;;;4.57;4.00;;;;;;;13.20;67.17;96352.56;4962844;28;20267;-68
2024/04/06 05:01:46;;;;;;;8.03;5.80;;;;;;;13.21;66.97;96359.56;4954783;28;20202;-70
2024/04/06 05:04:12;;;;;;;9.73;5.10;;;;;;;13.31;66.72;96357.31;4968541;28;20193;-70
2024/04/06 05:06:37;;;;;;;12.83;5.13;;;;;;;13.28;66.83;96362.75;4975007;28;20593;-70
2024/04/06 05:09:06;;;;;;;9.53;4.20;;;;;;;13.28;66.89;96358.31;4971628;28;20182;-68
2024/04/06 05:11:32;;;;;;;6.70;4.90;;;;;;;13.25;66.52;96361.09;4967625;28;20244;-68
2024/04/06 05:13:58;;;;;;;14.67;5.40;;;;;;;13.30;66.30;96363.53;4962591;28;20442;-68
2024/04/06 05:16:24;;;;;;;8.23;4.67;;;;;;;13.43;66.08;96364.53;4965601;28;20221;-69
2024/04/06 05:18:49;;;;;;;10.90;5.07;;;;;;;13.49;65.76;96369.47;4966627;28;20444;-69
2024/04/06 05:21:15;;;;;;;6.20;4.23;;;;;;;13.42;65.74;96380.44;4968688;28;20192;-69
2024/04/06 05:23:40;;;;;;;6.80;4.93;;;;;;;13.56;65.30;96380.53;4971076;28;20285;-70
2024/04/06 05:26:06;;;;;;;9.90;5.33;;;;;;;13.59;65.06;96375.06;4967343;28;20961;-69
2024/04/06 05:28:31;;;;;;;6.90;4.80;;;;;;;13.71;64.53;96376.16;4966304;28;20204;-69
2024/04/06 05:30:56;;;;;;;9.60;5.33;;;;;;;13.78;64.24;96377.50;4958380;28;20190;-70
2024/04/06 05:33:22;;;;;;;11.60;5.97;;;;;;;13.85;63.77;96372.75;4959475;28;20943;-69
2024/04/06 05:35:50;;;;;;;7.80;5.00;;;;;;;13.91;63.37;96372.38;4963800;28;20200;-70
2024/04/06 05:38:19;;;;;;;8.37;5.63;;;;;;;14.03;62.75;96373.44;4966552;28;20958;-72
2024/04/06 05:40:45;;;;;;;5.73;4.53;;;;;;;14.45;61.90;96372.72;4953244;28;20472;-70
2024/04/06 05:43:12;;;;;;;9.63;4.97;;;;;;;15.14;59.65;96376.47;4956022;28;20445;-70
2024/04/06 05:45:39;;;;;;;7.23;4.93;;;;;;;15.95;56.62;96369.59;4966269;28;20499;-70
2024/04/06 05:48:06;;;;;;;9.70;4.67;;;;;;;16.50;54.50;96368.53;4963250;28;20469;-69
2024/04/06 05:50:41;;;;;;;5.40;4.60;;;;;;;17.13;52.46;96359.75;4967116;28;20614;-69
2024/04/06 05:53:06;;;;;;;12.47;5.37;;;;;;;17.42;51.63;96364.78;4960306;28;20948;-70
2024/04/06 05:55:32;;;;;;;6.33;4.23;;;;;;;17.50;51.39;96359.78;4967189;28;20439;-69
2024/04/06 05:57:57;;;;;;;10.40;6.63;;;;;;;17.62;50.70;96360.66;4958068;28;20205;-68
2024/04/06 06:00:26;;;;;;;10.70;4.80;;;;;;;17.89;50.09;96360.50;4963196;28;20880;-69
2024/04/06 06:02:53;;;;;;;6.43;4.90;;;;;;;17.87;50.06;96359.75;4950897;28;20217;-71
2024/04/06 06:05:19;;;;;;;14.47;5.40;;;;;;;18.08;49.71;96361.81;4952118;28;20444;-70
2024/04/06 06:07:45;;;;;;;8.67;4.80;;;;;;;18.16;49.19;96367.38;4955431;28;20476;-69
2024/04/06 06:10:10;;;;;;;6.80;5.33;;;;;;;18.19;49.29;96361.84;4962291;28;20516;-70
2024/04/06 06:12:35;;;;;;;7.57;5.03;;;;;;;18.17;49.03;96359.28;4964607;28;20338;-70
2024/04/06 06:15:01;;;;;;;6.27;4.53;;;;;;;18.25;49.15;96369.34;4956870;28;20205;-70
2024/04/06 06:17:27;;;;;;;6.03;5.00;;;;;;;17.99;49.78;96376.59;4957530;28;20202;-71
2024/04/06 06:19:52;;;;;;;6.97;4.50;;;;;;;18.14;49.39;96372.81;4955530;28;20190;-70
2024/04/06 06:22:18;;;;;;;6.50;4.37;;;;;;;18.58;48.18;96373.06;4975312;28;20239;-68
2024/04/06 06:24:43;;;;;;;6.13;4.50;;;;;;;18.61;47.69;96378.13;4967722;28;20200;-70
2024/04/06 06:27:09;;;;;;;6.53;5.23;;;;;;;18.89;47.04;96376.06;4958958;28;20185;-72
2024/04/06 06:29:34;;;;;;;5.80;5.20;;;;;;;19.27;46.27;96372.19;4970519;28;20190;-72
2024/04/06 06:32:00;;;;;;;5.50;4.90;;;;;;;19.39;46.24;96373.88;4985705;28;20213;-70
2024/04/06 06:34:26;;;;;;;5.60;4.63;;;;;;;19.47;46.07;96374.13;4957805;28;20184;-69
2024/04/06 06:36:52;;;;;;;7.80;4.50;;;;;;;19.55;45.70;96379.66;4969879;28;20217;-70
2024/04/06 06:39:17;;;;;;;14.77;4.50;;;;;;;19.73;45.21;96385.38;4957157;28;20443;-71
2024/04/06 06:41:43;;;;;;;14.97;4.63;;;;;;;20.22;44.50;96373.34;4949492;28;21007;-71
2024/04/06 06:44:08;;;;;;;10.50;5.97;;;;;;;20.27;44.37;96370.31;4957505;28;20280;-70
2024/04/06 06:46:35;;;;;;;8.20;4.83;;;;;;;20.24;44.39;96378.53;4961384;28;20189;-71
2024/04/06 06:49:00;;;;;;;5.17;4.67;;;;;;;20.01;44.57;96375.97;4958066;28;20563;-70
2024/04/06 06:51:26;;;;;;;8.90;4.30;;;;;;;20.20;44.37;96377.13;4960828;28;20474;-70
2024/04/06 06:53:52;;;;;;;6.27;4.03;;;;;;;20.48;43.74;96368.50;4953654;28;20185;-69
2024/04/06 06:56:19;;;;;;;5.17;3.90;;;;;;;20.67;43.32;96367.81;4952191;28;20185;-71
2024/04/06 06:58:44;;;;;;;5.40;4.20;;;;;;;20.80;42.75;96372.94;4958854;28;20472;-70
2024/04/06 07:01:10;;;;;;;5.20;4.43;;;;;;;20.80;42.54;96364.09;4963598;28;20915;-71
2024/04/06 07:03:35;;;;;;;4.30;3.90;;;;;;;21.04;42.01;96371.81;4956229;28;20193;-70
2024/04/06 07:06:03;;;;;;;5.60;3.70;;;;;;;21.31;41.45;96369.44;4960202;28;20293;-71
2024/04/06 07:08:28;;;;;;;6.53;4.53;;;;;;;21.44;41.21;96368.38;4957570;28;20189;-71
2024/04/06 07:10:54;;;;;;;7.73;4.30;;;;;;;21.58;40.71;96368.00;4954778;28;20442;-70
2024/04/06 07:13:19;;;;;;;10.57;4.20;;;;;;;21.99;40.02;96363.44;4964447;28;20227;-69
2024/04/06 07:15:45;;;;;;;4.50;4.10;;;;;;;22.04;39.57;96365.69;4958396;28;20258;-70
2024/04/06 07:18:10;;;;;;;5.30;3.83;;;;;;;22.06;39.42;96367.22;4958418;28;20216;-69
2024/04/06 07:20:35;;;;;;;5.80;3.47;;;;;;;22.22;38.95;96364.03;4961416;28;20185;-71
2024/04/06 07:23:01;;;;;;;5.20;3.30;;;;;;;22.18;38.26;96370.63;4969086;28;20213;-70
2024/04/06 07:25:26;;;;;;;4.10;3.40;;;;;;;22.30;37.66;96371.34;4965405;28;20185;-70
2024/04/06 07:27:52;;;;;;;8.33;4.17;;;;;;;22.43;37.32;96373.75;4966073;28;20221;-69
2024/04/06 07:30:17;;;;;;;4.30;3.13;;;;;;;22.19;36.74;96375.00;4965911;28;20983;-71
2024/04/06 07:32:42;;;;;;;9.83;3.00;;;;;;;22.06;36.67;96380.59;4966467;28;20208;-68
2024/04/06 07:35:09;;;;;;;4.30;3.00;;;;;;;22.16;36.82;96380.63;4962714;28;20269;-71
2024/04/06 07:37:34;;;;;;;3.67;3.00;;;;;;;22.26;36.66;96381.50;4965624;28;20210;-70
2024/04/06 07:40:00;;;;;;;3.70;3.40;;;;;;;22.34;36.24;96383.47;4968336;28;20432;-70
2024/04/06 07:42:25;;;;;;;5.73;3.30;;;;;;;22.65;35.60;96389.50;4966642;28;20221;-71
2024/04/06 07:44:50;;;;;;;4.80;3.10;;;;;;;22.40;36.10;96382.91;4968712;28;20181;-71
2024/04/06 07:47:16;;;;;;;3.60;2.90;;;;;;;22.40;36.43;96388.25;4968401;28;20257;-71
2024/04/06 07:49:42;;;;;;;3.90;3.10;;;;;;;22.38;35.99;96388.38;4966775;28;20205;-70
2024/04/06 07:52:08;;;;;;;6.90;3.43;;;;;;;22.54;35.89;96395.03;4958266;28;21327;-71
2024/04/06 07:54:33;;;;;;;5.17;3.20;;;;;;;22.65;36.14;96392.16;4966583;28;20256;-70
2024/04/06 07:56:58;;;;;;;4.97;3.33;;;;;;;22.69;35.89;96392.75;4966529;28;20906;-70
2024/04/06 07:59:24;;;;;;;4.70;3.67;;;;;;;22.75;36.06;96397.53;4963424;28;20217;-70
2024/04/06 08:01:49;;;;;;;6.03;2.83;;;;;;;22.64;35.86;96395.00;4961701;28;20213;-69
2024/04/06 08:04:14;;;;;;;5.97;2.83;;;;;;;22.42;36.41;96410.38;4967500;28;20192;-70
2024/04/06 08:06:40;;;;;;;7.60;2.90;;;;;;;22.40;36.66;96404.31;4967209;28;20189;-69
2024/04/06 08:09:05;;;;;;;4.77;2.80;;;;;;;22.74;36.25;96398.50;4964260;28;20202;-70
2024/04/06 08:11:31;;;;;;;5.87;2.77;;;;;;;22.70;36.37;96399.78;4967175;28;20220;-70
2024/04/06 08:13:56;;;;;;;4.33;3.00;;;;;;;22.86;36.20;96399.19;4964159;28;20192;-69
2024/04/06 08:16:21;;;;;;;4.70;2.70;;;;;;;23.19;35.72;96390.69;4963188;28;20212;-70
2024/04/06 08:18:47;;;;;;;6.33;3.10;;;;;;;23.38;35.37;96394.28;4965414;28;20213;-69
2024/04/06 08:21:12;;;;;;;4.50;3.00;;;;;;;23.72;35.33;96397.25;4966540;28;20197;-70
2024/04/06 08:23:38;;;;;;;7.80;3.87;;;;;;;23.64;35.48;96402.50;4969406;28;20189;-71
2024/04/06 08:26:04;;;;;;;4.20;3.00;;;;;;;23.52;35.75;96411.72;4965421;28;20188;-70
2024/04/06 08:28:29;;;;;;;5.83;2.80;;;;;;;23.60;35.62;96407.31;4967285;28;20222;-69
2024/04/06 08:30:54;;;;;;;6.10;3.27;;;;;;;23.29;36.19;96408.56;4956757;28;20546;-70
2024/04/06 08:33:20;;;;;;;5.90;3.00;;;;;;;23.66;35.90;96414.75;4966529;28;20408;-70
2024/04/06 08:35:45;;;;;;;5.30;3.10;;;;;;;23.88;35.26;96412.69;4958110;28;20548;-71
2024/04/06 08:38:11;;;;;;;6.90;3.37;;;;;;;23.71;35.97;96411.63;4963585;28;20216;-70
2024/04/06 08:40:41;;;;;;;7.30;3.10;;;;;;;23.83;35.80;96410.47;4969443;28;20268;-69
2024/04/06 08:43:13;;;;;;;5.27;3.47;;;;;;;24.15;35.49;96409.16;4967699;28;20216;-70
2024/04/06 08:45:39;;;;;;;4.17;2.77;;;;;;;24.01;35.39;96407.00;4972588;28;20504;-68
2024/04/06 08:48:09;;;;;;;18.17;4.30;;;;;;;24.12;35.48;96409.47;4969753;28;20405;-69
2024/04/06 08:50:34;;;;;;;6.17;3.10;;;;;;;24.18;35.46;96405.31;4972934;28;20452;-69
2024/04/06 08:53:00;;;;;;;4.33;3.23;;;;;;;24.49;34.71;96400.47;4973765;28;20453;-69
2024/04/06 08:55:25;;;;;;;7.73;3.00;;;;;;;24.36;35.25;96398.13;4982284;28;20210;-68
2024/04/06 08:57:52;;;;;;;5.90;3.00;;;;;;;24.35;34.55;96392.91;4976410;28;20206;-71
2024/04/06 09:00:23;;;;;;;4.90;3.30;;;;;;;24.72;34.27;96387.41;4973793;28;20748;-72
2024/04/06 09:02:49;;;;;;;5.20;3.20;;;;;;;24.95;33.94;96384.25;4969344;28;20629;-71
2024/04/06 09:05:14;;;;;;;5.60;2.50;;;;;;;24.88;34.26;96397.44;4968244;28;20539;-70
2024/04/06 09:07:39;;;;;;;4.77;2.50;;;;;;;24.92;33.92;96393.41;4966330;28;20217;-70
2024/04/06 09:10:05;;;;;;;4.50;3.10;;;;;;;24.78;33.68;96388.63;4964801;28;20273;-71
2024/04/06 09:12:30;;;;;;;3.50;3.20;;;;;;;24.58;34.29;96387.97;4975219;28;20220;-71
2024/04/06 09:14:56;;;;;;;6.90;3.30;;;;;;;24.02;34.63;96387.22;4966363;28;20193;-72
2024/04/06 09:17:22;;;;;;;7.33;2.43;;;;;;;24.00;35.35;96389.19;4970781;28;20255;-70
2024/04/06 09:19:47;;;;;;;3.53;2.37;;;;;;;24.09;34.99;96381.13;4973197;28;20675;-71
2024/04/06 09:22:13;;;;;;;13.27;3.80;;;;;;;24.23;35.04;96377.03;4972930;28;20214;-70
2024/04/06 09:24:39;;;;;;;3.60;2.40;;;;;;;24.61;34.06;96376.91;4968254;28;20196;-70
2024/04/06 09:27:13;;;;;;;7.70;2.60;;;;;;;24.77;33.93;96378.91;4965090;28;20200;-71
2024/04/06 09:29:46;;;;;;;9.73;2.83;;;;;;;24.90;33.51;96380.19;4968848;28;20224;-70
2024/04/06 09:32:14;;;;;;;5.90;2.30;;;;;;;24.93;33.02;96370.97;4967008;28;20458;-73
2024/04/06 09:34:48;;;;;;;4.00;2.97;;;;;;;24.82;33.57;96365.84;4965714;28;20474;-69
2024/04/06 09:37:20;;;;;;;14.63;3.23;;;;;;;24.97;33.74;96366.97;4961146;28;20476;-70
2024/04/06 09:39:47;;;;;;;12.70;3.53;;;;;;;25.11;33.99;96362.84;4961286;28;20990;-69
2024/04/06 09:42:14;;;;;;;5.23;2.53;;;;;;;25.08;33.74;96361.31;4968752;28;20514;-71
2024/04/06 09:44:41;;;;;;;10.37;3.47;;;;;;;25.00;33.39;96352.38;4962075;28;20447;-70
2024/04/06 09:47:09;;;;;;;4.70;2.80;;;;;;;24.92;33.97;96356.72;4965573;28;20924;-69
2024/04/06 09:49:35;;;;;;;25.20;5.13;;;;;;;24.93;33.98;96355.69;4967024;28;20539;-70
2024/04/06 09:52:02;;;;;;;23.30;4.43;;;;;;;24.93;34.69;96352.16;4980023;28;20444;-71
2024/04/06 09:54:28;;;;;;;4.63;3.07;;;;;;;25.03;34.78;96349.38;4966507;28;20429;-69
2024/04/06 09:56:54;;;;;;;5.13;3.10;;;;;;;25.09;34.53;96349.59;4952480;28;21058;-70
2024/04/06 09:59:26;;;;;;;8.70;3.90;;;;;;;25.51;34.70;96338.09;4963433;28;20193;-70
2024/04/06 10:01:56;;;;;;;5.93;2.60;;;;;;;25.73;34.13;96333.97;4956435;28;20450;-70
2024/04/06 10:04:23;;;;;;;7.07;2.90;;;;;;;25.71;33.76;96332.44;4976033;28;20531;-69
2024/04/06 10:06:52;;;;;;;10.80;3.33;;;;;;;25.59;33.83;96336.44;4980391;28;20802;-69
2024/04/06 10:09:18;;;;;;;8.10;3.23;;;;;;;25.55;34.03;96334.06;4967777;28;20437;-69
2024/04/06 10:11:43;;;;;;;6.90;3.53;;;;;;;25.59;34.07;96333.75;4967771;28;20476;-70
2024/04/06 10:14:09;;;;;;;19.33;4.40;;;;;;;25.67;34.24;96329.22;4969689;28;20946;-68
2024/04/06 10:16:40;;;;;;;8.40;3.80;;;;;;;25.81;33.94;96327.75;4974263;28;20276;-68
2024/04/06 10:19:08;;;;;;;11.97;4.37;;;;;;;25.95;34.11;96329.00;4973611;28;20181;-70
2024/04/06 10:21:45;;;;;;;11.67;3.53;;;;;;;26.11;33.79;96333.56;4972654;28;20465;-71
2024/04/06 10:24:15;;;;;;;14.63;3.90;;;;;;;26.21;33.78;96328.03;4969636;28;20940;-69
2024/04/06 10:26:49;;;;;;;3.70;3.10;;;;;;;26.14;33.81;96326.00;4971133;28;20498;-68
2024/04/06 10:29:15;;;;;;;5.50;3.30;;;;;;;26.00;35.83;96326.66;4967338;28;20443;-70
2024/04/06 10:31:41;;;;;;;6.50;3.07;;;;;;;25.83;35.78;96322.22;4963884;28;20471;-67
2024/04/06 10:34:07;;;;;;;8.90;3.30;;;;;;;25.72;36.26;96329.56;4980611;28;20467;-70
2024/04/06 10:36:32;;;;;;;10.80;3.50;;;;;;;25.67;36.42;96326.53;4962080;28;20875;-69
2024/04/06 10:38:58;;;;;;;7.23;3.10;;;;;;;25.67;37.99;96317.63;4967564;28;20280;-69
2024/04/06 10:41:23;;;;;;;14.33;3.40;;;;;;;25.82;39.25;96324.09;4971898;28;20208;-69
2024/04/06 10:43:49;;;;;;;4.13;3.10;;;;;;;25.55;34.32;96330.53;4964941;28;20194;-70
2024/04/06 10:46:15;;;;;;;10.00;3.40;;;;;;;25.18;38.41;96325.50;4963965;28;20196;-69
2024/04/06 10:48:41;;;;;;;13.00;2.83;;;;;;;25.58;35.69;96329.38;4962090;28;20185;-70
2024/04/06 10:51:07;;;;;;;8.53;2.70;;;;;;;25.61;37.97;96327.22;4969316;28;20198;-69
2024/04/06 10:53:33;;;;;;;11.40;2.27;;;;;;;25.72;34.73;96318.81;4971556;28;20451;-70
2024/04/06 10:55:59;;;;;;;5.80;2.97;;;;;;;25.95;33.36;96321.78;4958969;28;20288;-68
2024/04/06 10:58:24;;;;;;;20.67;3.77;;;;;;;25.98;36.14;96310.72;4972078;28;21030;-69
2024/04/06 11:00:50;;;;;;;6.30;2.40;;;;;;;25.87;34.02;96308.31;4961542;28;20212;-69
2024/04/06 11:03:19;;;;;;;8.10;2.50;;;;;;;25.93;33.79;96313.03;4975607;28;20233;-69
2024/04/06 11:05:45;;;;;;;4.80;1.90;;;;;;;25.94;32.30;96311.19;4969410;28;20190;-71
2024/04/06 11:08:10;;;;;;;10.27;2.37;;;;;;;25.83;33.10;96298.88;4960347;28;20453;-68
2024/04/06 11:10:38;;;;;;;4.03;2.03;;;;;;;25.40;36.40;96300.75;4969423;28;20188;-69
2024/04/06 11:13:04;;;;;;;4.23;1.93;;;;;;;25.32;33.59;96301.56;4970761;28;20217;-68
2024/04/06 11:15:29;;;;;;;5.90;1.93;;;;;;;25.25;34.08;96294.31;4969346;28;20447;-68
2024/04/06 11:17:56;;;;;;;6.40;2.30;;;;;;;25.02;34.25;96289.47;4965795;28;20210;-69
2024/04/06 11:20:22;;;;;;;7.33;2.07;;;;;;;25.03;33.83;96287.63;4961435;28;20191;-69
2024/04/06 11:22:48;;;;;;;10.70;2.73;;;;;;;25.15;33.35;96287.19;4955062;28;20484;-69
2024/04/06 11:25:17;;;;;;;4.73;2.10;;;;;;;25.23;32.13;96282.88;4963711;28;20299;-69